Latest Weather Observations for Albury

IDV60801

Issued at 4:22 am EST Wednesday 23 September 2020 (issued every 10 minutes, with the page automatically refreshed every 10 minutes)

About weather observations | Map of weather stations | Latest weather observations for VIC | Other Formats
Station Details ID: 072160 Name: ALBURY AIRPORT AWS Lat: -36.07 Lon: 146.95 Height: 163.5 m
Data from the previous 72 hours. | See also: Recent months at Albury
Date/Time
EST
Temp
°C
App
Temp
°C
Dew
Point
°C
Rel
Hum
%
Delta-T
°C
Wind Press
QNH
hPa
Press
MSL
hPa
Rain since
9am
mm
Dir  Spd
km/h
Gust
km/h
Spd
kts
Gust
kts
23/04:00am 9.6 7.7 7.7 88 0.9 NW 7 11 4 6 1013.4 1013.5 0.0
23/03:30am 9.7 7.8 7.5 86 1.1 W 7 9 4 5 1013.4 1013.5 0.0
23/03:00am 10.1 7.8 7.5 84 1.3 W 9 13 5 7 1013.6 1013.7 0.0
23/02:30am 10.8 8.5 8.9 88 0.9 WNW 11 17 6 9 1013.7 1013.8 0.0
23/02:00am 11.1 8.0 8.8 86 1.1 WNW 15 22 8 12 1013.9 1014.0 0.0
23/01:30am 11.4 7.2 8.4 82 1.5 W 20 28 11 15 1013.9 1014.0 0.0
23/01:00am 11.2 10.2 8.9 86 1.2 NNW 4 7 2 4 1013.9 1014.0 0.0
23/12:30am 10.7 10.6 9.3 91 0.7 CALM 0 0 0 0 1013.9 1014.0 0.0
23/12:00am 11.3 9.9 8.7 84 1.3 W 6 9 3 5 1013.6 1013.7 0.0
 
Date/Time
EST
Temp
°C
App
Temp
°C
Dew
Point
°C
Rel
Hum
%
Delta-T
°C
Wind Press
QNH
hPa
Press
MSL
hPa
Rain since
9am
mm
Dir  Spd
km/h
Gust
km/h
Spd
kts
Gust
kts
22/11:30pm 10.9 9.7 8.1 83 1.4 NNE 4 7 2 4 1013.5 1013.6 0.0
22/11:00pm 11.8 9.5 7.5 75 2.1 NW 9 17 5 9 1013.6 1013.7 0.0
22/10:30pm 12.2 9.2 7.7 74 2.2 W 13 19 7 10 1013.5 1013.6 0.0
22/10:00pm 11.9 10.2 8.2 78 1.8 WNW 7 17 4 9 1013.5 1013.6 0.0
22/09:30pm 12.3 10.9 8.8 79 1.8 NW 6 7 3 4 1013.4 1013.5 0.0
22/09:00pm 12.4 9.6 8.5 77 2.0 NW 13 20 7 11 1013.3 1013.4 0.0
22/08:30pm 13.3 8.4 8.6 73 2.4 WNW 24 33 13 18 1013.4 1013.5 0.0
22/08:00pm 12.1 9.8 9.1 82 1.5 WSW 11 17 6 9 1012.8 1012.9 0.0
22/07:30pm 12.5 8.8 9.5 82 1.5 WNW 19 32 10 17 1012.4 1012.4 0.0
22/07:15pm 13.9 8.9 7.9 67 3.0 WNW 24 59 13 32 1012.3 1012.3 0.0
22/07:00pm 15.0 10.5 6.3 56 4.2 NNW 19 26 10 14 1011.2 1011.2 0.0
22/06:30pm 15.4 11.7 6.4 55 4.4 NNW 15 20 8 11 1011.1 1011.1 0.0
22/06:00pm 16.0 10.9 6.2 52 4.8 NW 22 30 12 16 1010.8 1010.8 0.0
22/05:30pm 16.4 11.9 6.2 51 5.0 NW 19 28 10 15 1010.6 1010.6 0.0
22/05:00pm 16.7 12.0 6.2 50 5.2 NW 20 30 11 16 1010.3 1010.3 0.0
22/04:30pm 17.1 10.5 6.0 48 5.5 NW 30 39 16 21 1010.0 1010.0 0.0
22/04:00pm 17.9 13.2 7.9 52 5.1 NW 22 32 12 17 1010.0 1010.0 0.0
22/03:30pm 17.9 12.9 7.9 52 5.1 WNW 24 32 13 17 1010.2 1010.2 0.0
22/03:00pm 16.9 11.5 6.4 50 5.2 NW 24 35 13 19 1010.2 1010.2 0.0
22/02:30pm 18.0 12.7 6.8 48 5.6 NW 24 35 13 19 1010.2 1010.2 0.0
22/02:04pm 18.3 12.3 7.1 48 5.7 NW 28 48 15 26 1010.0 1010.0 0.0
22/02:00pm 18.0 12.6 8.0 52 5.2 NW 26 35 14 19 1010.2 1010.2 0.0
22/01:30pm 18.0 13.1 8.3 53 5.0 NW 24 37 13 20 1010.3 1010.3 0.0
22/01:00pm 17.3 11.6 8.2 55 4.7 NW 28 43 15 23 1010.6 1010.6 0.0
22/12:30pm 16.0 11.8 9.9 67 3.2 W 22 32 12 17 1010.9 1010.9 0.0
22/12:00pm 16.6 11.9 7.8 56 4.5 NW 22 32 12 17 1011.0 1011.0 0.0
22/11:30am 14.7 11.4 9.5 71 2.7 WNW 17 26 9 14 1011.4 1011.4 0.0
22/11:00am 15.0 11.2 9.1 68 3.0 NW 19 28 10 15 1011.3 1011.3 0.0
22/10:30am 15.2 12.4 10.0 71 2.7 NNW 15 22 8 12 1011.2 1011.2 0.0
22/10:00am 14.5 11.0 8.9 69 2.9 WNW 17 24 9 13 1011.4 1011.4 0.0
22/09:30am 13.4 11.1 7.6 68 2.9 NNW 9 15 5 8 1011.3 1011.3 0.0
22/09:00am 12.8 10.7 8.3 74 2.3 NNW 9 13 5 7 1011.3 1011.3 2.0
22/08:30am 11.7 12.2 11.5 99 0.1 CALM 0 0 0 0 1011.0 1011.0 2.0
22/08:00am 9.8 9.4 9.8 100 0.0 NE 2 6 1 3 1010.7 1010.7 2.0
22/07:30am 8.6 7.5 8.6 100 0.0 SW 4 6 2 3 1010.5 1010.5 2.0
22/07:00am 7.9 5.7 7.9 100 0.0 ENE 9 13 5 7 1010.2 1010.2 2.0
22/06:30am 7.4 6.4 7.4 100 0.0 ESE 2 6 1 3 1010.1 1010.1 2.0
22/06:00am 7.0 6.3 7.0 100 0.0 CALM 0 0 0 0 1009.8 1009.8 2.0
22/05:30am 6.7 4.8 6.7 100 0.0 W 6 9 3 5 1009.6 1009.6 2.0
22/05:00am 6.7 5.9 6.7 100 0.0 CALM 0 0 0 0 1008.8 1008.9 1.8
22/04:30am 6.1 4.4 6.1 100 0.0 ENE 4 6 2 3 1008.8 1008.9 1.8
22/04:20am 5.8 3.7 5.8 100 0.0 ENE 6 6 3 3 1008.8 1008.9 1.8
22/04:00am 5.5 3.3 5.5 100 0.0 E 6 7 3 4 1008.7 1008.8 1.8
22/03:30am 5.8 4.8 5.8 100 0.0 CALM 0 0 0 0 1008.6 1008.7 1.8
22/03:00am 6.4 5.6 6.4 100 0.0 CALM 0 0 0 0 1008.6 1008.7 1.8
22/02:36am 6.2 5.3 6.2 100 0.0 CALM 0 0 0 0 1008.8 1008.9 1.8
22/02:30am 6.5 5.7 6.5 100 0.0 CALM 0 0 0 0 1008.9 1009.0 1.8
22/02:00am 6.8 6.1 6.8 100 0.0 CALM 0 0 0 0 1009.1 1009.2 1.8
22/01:30am 6.9 6.2 6.9 100 0.0 CALM 0 4 0 2 1009.4 1009.4 1.8
22/01:12am 7.4 6.8 7.4 100 0.0 CALM 0 0 0 0 1009.5 1009.5 1.8
22/01:00am 7.9 7.4 7.9 100 0.0 CALM 0 0 0 0 1009.5 1009.5 1.8
22/12:45am 7.5 6.9 7.5 100 0.0 CALM 0 0 0 0 1009.6 1009.6 1.8
22/12:30am 7.4 6.8 7.4 100 0.0 CALM 0 0 0 0 1009.4 1009.4 1.8
22/12:00am 8.3 7.9 8.3 100 0.0 CALM 0 0 0 0 1009.1 1009.2 1.8
 
Date/Time
EST
Temp
°C
App
Temp
°C
Dew
Point
°C
Rel
Hum
%
Delta-T
°C
Wind Press
QNH
hPa
Press
MSL
hPa
Rain since
9am
mm
Dir  Spd
km/h
Gust
km/h
Spd
kts
Gust
kts
21/11:30pm 8.6 8.3 8.6 100 0.0 CALM 0 0 0 0 1009.0 1009.1 1.8
21/11:00pm 9.2 9.0 9.2 100 0.0 CALM 0 0 0 0 1009.0 1009.1 1.8
21/10:58pm 9.6 9.5 9.6 100 0.0 CALM 0 0 0 0 1009.0 1009.1 1.8
21/10:30pm 9.5 8.7 9.5 100 0.0 SE 4 7 2 4 1008.9 1009.0 1.8
21/10:00pm 10.9 11.2 10.9 100 0.0 CALM 0 0 0 0 1008.7 1008.8 1.8
21/09:30pm 11.0 10.2 11.0 100 0.0 WSW 6 9 3 5 1008.5 1008.6 1.8
21/09:00pm 11.3 11.7 11.1 99 0.1 CALM 0 6 0 3 1007.9 1008.0 1.8
21/08:30pm 11.9 12.3 11.1 95 0.4 CALM 0 0 0 0 1007.4 1007.4 1.8
21/08:00pm 13.4 14.3 12.8 96 0.3 CALM 0 0 0 0 1007.1 1007.1 1.8
21/07:30pm 13.6 13.0 12.3 92 0.7 NNW 7 11 4 6 1006.4 1006.4 1.8
21/07:00pm 14.3 14.3 12.5 89 1.0 NW 4 9 2 5 1005.9 1005.9 1.8
21/06:30pm 15.3 14.4 12.6 84 1.5 NNW 9 11 5 6 1005.5 1005.5 1.8
21/06:00pm 17.0 17.4 11.1 68 3.2 CALM 0 0 0 0 1005.0 1005.0 1.8
21/05:30pm 19.2 19.7 11.7 62 4.2 CALM 0 0 0 0 1005.1 1005.1 1.8
21/05:00pm 20.1 19.4 12.1 60 4.5 WSW 7 11 4 6 1005.2 1005.2 1.8
21/04:30pm 19.8 19.2 13.5 67 3.6 W 9 15 5 8 1005.5 1005.5 1.8
21/04:00pm 18.8 16.6 14.9 78 2.3 W 20 28 11 15 1005.7 1005.7 1.8
21/03:30pm 18.8 16.1 17.6 93 0.7 WSW 28 35 15 19 1005.0 1005.0 1.8
21/03:00pm 18.7 17.5 18.5 99 0.1 W 22 35 12 19 1005.3 1005.3 1.6
21/02:30pm 19.5 18.9 17.5 88 1.2 NW 17 28 9 15 1005.7 1005.7 1.0
21/02:00pm 21.6 21.2 16.1 71 3.3 NNW 13 24 7 13 1005.0 1005.0 0.0
21/01:30pm 22.3 22.4 17.4 74 3.0 NNW 13 17 7 9 1005.4 1005.4 0.0
21/01:00pm 21.5 20.0 16.7 74 2.9 NNW 20 28 11 15 1006.7 1006.7 0.0
21/12:30pm 21.8 20.3 16.7 73 3.1 N 20 30 11 16 1006.0 1006.0 0.0
21/12:00pm 21.2 18.6 16.0 72 3.2 N 24 32 13 17 1007.0 1007.0 0.0
21/11:30am 22.0 20.2 16.1 69 3.6 NNE 20 32 11 17 1007.2 1007.2 0.0
21/11:00am 21.5 21.5 16.2 72 3.2 N 11 15 6 8 1007.7 1007.8 0.0
21/10:30am 20.3 21.7 15.5 74 2.9 NW 2 7 1 4 1008.3 1008.4 0.0
21/10:00am 19.8 21.5 16.1 79 2.2 SSE 2 6 1 3 1008.5 1008.6 0.0
21/09:30am 18.9 18.7 15.6 81 2.0 E 11 15 6 8 1008.6 1008.7 0.0
21/09:00am 18.8 17.7 15.3 80 2.1 ENE 15 19 8 10 1008.8 1008.9 0.2
21/08:30am 18.8 18.4 15.3 80 2.1 NE 11 17 6 9 1008.7 1008.8 0.2
21/08:00am 17.9 17.4 15.0 83 1.7 ENE 11 19 6 10 1008.4 1008.5 0.2
21/07:30am 14.5 14.7 14.3 99 0.1 ESE 6 7 3 4 1008.4 1008.5 0.2
21/07:00am 12.8 11.6 12.8 100 0.0 E 11 13 6 7 1008.6 1008.7 0.2
21/06:35am 11.4 11.5 11.4 100 0.0 SE 2 7 1 4 1008.5 1008.6 0.2
21/06:30am 11.1 11.5 11.1 100 0.0 CALM 0 6 0 3 1008.4 1008.5 0.2
21/06:00am 10.0 8.9 10.0 100 0.0 SSW 6 7 3 4 1008.4 1008.5 0.2
21/05:35am 10.5 10.3 10.5 100 0.0 SE 2 7 1 4 1008.1 1008.2 0.2
21/05:30am 10.5 10.7 10.5 100 0.0 CALM 0 0 0 0 1008.2 1008.3 0.2
21/05:00am 11.1 10.7 11.1 100 0.0 ENE 4 9 2 5 1008.5 1008.6 0.0
21/04:30am 11.2 10.4 11.2 100 0.0 ESE 6 9 3 5 1009.0 1009.1 0.0
21/04:00am 11.9 12.5 11.9 100 0.0 CALM 0 0 0 0 1008.9 1009.0 0.0
21/03:30am 11.6 12.1 11.6 100 0.0 CALM 0 0 0 0 1009.1 1009.2 0.0
21/03:00am 11.8 11.0 11.8 100 0.0 NNE 7 9 4 5 1009.2 1009.3 0.0
21/02:30am 11.6 11.0 11.6 100 0.0 E 6 6 3 3 1009.8 1009.8 0.0
21/02:00am 11.6 12.1 11.6 100 0.0 CALM 0 0 0 0 1010.4 1010.4 0.0
21/01:30am 11.6 12.1 11.6 100 0.0 CALM 0 0 0 0 1010.7 1010.7 0.0
21/01:00am 11.1 11.1 11.1 100 0.0 E 2 6 1 3 1010.8 1010.8 0.0
21/12:30am 11.8 11.2 11.8 100 0.0 SE 6 7 3 4 1010.7 1010.7 0.0
21/12:27am 11.8 11.2 11.8 100 0.0 SE 6 9 3 5 1010.7 1010.7 0.0
21/12:04am 11.2 10.4 11.2 100 0.0 S 6 7 3 4 1010.6 1010.6 0.0
21/12:00am 11.7 11.5 11.7 100 0.0 S 4 7 2 4 1010.5 1010.5 0.0
 
Date/Time
EST
Temp
°C
App
Temp
°C
Dew
Point
°C
Rel
Hum
%
Delta-T
°C
Wind Press
QNH
hPa
Press
MSL
hPa
Rain since
9am
mm
Dir  Spd
km/h
Gust
km/h
Spd
kts
Gust
kts
20/11:30pm 12.4 11.8 12.4 100 0.0 SE 7 9 4 5 1010.5 1010.5 0.0
20/11:00pm 12.8 12.3 12.8 100 0.0 SSE 7 7 4 4 1010.7 1010.7 0.0
20/10:30pm 12.1 11.6 12.1 100 0.0 ESE 6 7 3 4 1010.6 1010.6 0.0
20/10:00pm 12.4 11.8 12.2 99 0.1 SE 7 7 4 4 1010.7 1010.7 0.0
20/09:30pm 13.4 13.3 13.2 99 0.1 ESE 6 9 3 5 1010.7 1010.7 0.0
20/09:00pm 13.4 13.2 13.1 98 0.2 NE 6 7 3 4 1010.8 1010.8 0.0
20/08:30pm 14.3 14.3 13.7 96 0.3 ENE 6 7 3 4 1010.6 1010.6 0.0
20/08:00pm 14.6 15.8 13.8 95 0.5 CALM 0 0 0 0 1010.2 1010.2 0.0
20/07:30pm 15.6 16.9 14.1 91 0.9 CALM 0 0 0 0 1010.1 1010.1 0.0
20/07:00pm 16.9 16.8 14.0 83 1.7 ENE 7 9 4 5 1009.8 1009.8 0.0
20/06:30pm 18.1 18.0 14.0 77 2.4 N 7 7 4 4 1009.4 1009.4 0.0
20/06:00pm 18.9 18.3 13.5 71 3.1 NNW 9 11 5 6 1009.1 1009.2 0.0
20/05:30pm 19.8 17.6 13.3 66 3.7 NNW 17 24 9 13 1008.8 1008.9 0.0
20/05:00pm 20.5 18.0 13.5 64 4.1 NNW 19 24 10 13 1008.5 1008.6 0.0
20/04:30pm 20.9 18.5 13.8 64 4.1 NNW 19 26 10 14 1008.4 1008.5 0.0
20/04:00pm 20.7 19.9 15.0 70 3.4 NW 13 17 7 9 1008.6 1008.7 0.0
20/03:30pm 19.9 17.7 14.9 73 3.0 NNW 20 28 11 15 1008.9 1009.0 0.0
20/03:00pm 20.1 18.3 14.5 70 3.3 NNW 17 30 9 16 1008.8 1008.9 0.0
20/02:30pm 19.9 18.0 14.3 70 3.3 N 17 28 9 15 1008.9 1009.0 0.0
20/02:00pm 19.7 17.8 15.1 75 2.7 N 19 24 10 13 1009.4 1009.4 0.0
20/01:30pm 20.1 19.4 15.5 75 2.7 N 13 24 7 13 1009.6 1009.6 0.0
20/01:00pm 19.4 16.2 14.2 72 3.0 N 24 32 13 17 1009.8 1009.8 0.0
20/12:30pm 19.3 18.2 15.4 78 2.3 N 15 24 8 13 1010.0 1010.0 0.0
20/12:00pm 19.4 17.9 16.4 83 1.8 NNE 19 24 10 13 1010.3 1010.3 0.0
20/11:30am 18.6 17.6 15.5 82 1.8 N 15 20 8 11 1010.6 1010.6 0.0
20/11:00am 18.1 16.2 15.2 83 1.7 NNE 19 24 10 13 1010.7 1010.7 0.0
20/10:30am 18.4 17.0 16.6 89 1.1 N 19 26 10 14 1010.8 1010.8 0.0
20/10:00am 16.6 14.6 15.5 93 0.6 N 20 30 11 16 1011.4 1011.4 0.0
20/09:30am 16.3 14.4 15.7 96 0.4 N 20 28 11 15 1011.6 1011.6 0.0
20/09:00am 15.7 13.3 15.5 99 0.1 NNE 22 32 12 17 1011.4 1011.4 5.0
20/08:49am 15.7 13.8 15.7 100 0.0 NNE 20 30 11 16 1011.4 1011.4 5.0
20/08:30am 15.3 12.5 15.3 100 0.0 NNE 24 33 13 18 1011.2 1011.2 5.0
20/08:12am 15.5 12.6 15.2 98 0.2 NNE 24 39 13 21 1011.3 1011.3 4.4
20/08:11am 15.5 12.6 15.0 97 0.3 NNE 24 39 13 21 1011.3 1011.3 4.4
20/08:00am 15.8 12.1 15.0 95 0.5 NNE 28 39 15 21 1011.3 1011.3 4.4
20/07:51am 16.0 13.4 14.9 93 0.6 NNE 22 39 12 21 1011.2 1011.2 4.4
20/07:30am 16.0 15.2 15.2 95 0.5 NE 13 20 7 11 1011.3 1011.3 4.4
20/07:21am 16.0 14.9 15.2 95 0.5 NE 15 22 8 12 1011.2 1011.2 4.4
20/07:00am 15.7 14.9 15.2 97 0.3 NE 13 20 7 11 1011.0 1011.0 4.4
20/06:30am 15.8 15.4 15.2 96 0.3 NE 11 15 6 8 1011.0 1011.0 4.4
20/06:00am 15.7 14.6 15.2 97 0.3 NE 15 22 8 12 1010.8 1010.8 4.4
20/05:30am 15.5 14.8 15.5 100 0.0 NNE 13 17 7 9 1011.0 1011.0 4.4
20/05:00am 15.2 13.2 15.0 99 0.1 NE 19 28 10 15 1010.8 1010.8 4.2
20/04:30am 15.4 12.1 15.1 98 0.2 NE 26 35 14 19 1010.7 1010.7 4.0

Other formats

Comma delimited format used in spreadsheet applications
http://www.bom.gov.au/fwo/IDV60801/IDV60801.95896.axf

JavaScript Object Notation format (JSON) in row-major order
http://www.bom.gov.au/fwo/IDV60801/IDV60801.95896.json

Data quality

Most of these data are generated automatically and are frequently updated. Quality checks on data are not normally performed. It is possible for incorrect values to appear. Refer to information at About Latest Weather Observations and please check the disclaimer before using these data.